createdAt,value
2023-02-17T00:00:54.260Z,12.80
2023-02-17T00:03:21.003Z,12.40
2023-02-17T00:05:49.972Z,14.97
2023-02-17T00:08:17.483Z,11.00
2023-02-17T00:10:44.084Z,14.33
2023-02-17T00:13:10.710Z,13.17
2023-02-17T00:15:40.458Z,13.50
2023-02-17T00:18:07.099Z,16.00
2023-02-17T00:20:33.662Z,14.50
2023-02-17T00:23:00.209Z,17.97
2023-02-17T00:25:26.821Z,25.03
2023-02-17T00:27:53.368Z,23.13
2023-02-17T00:30:19.984Z,28.57
2023-02-17T00:32:46.613Z,28.87
2023-02-17T00:35:13.361Z,28.27
2023-02-17T00:37:40.454Z,29.93
2023-02-17T00:40:07.615Z,44.10
2023-02-17T00:42:34.212Z,38.83
2023-02-17T00:45:00.808Z,43.27
2023-02-17T00:47:27.411Z,41.20
2023-02-17T00:49:59.424Z,37.16
2023-02-17T00:52:25.988Z,37.13
2023-02-17T00:54:52.575Z,35.47
2023-02-17T00:57:19.179Z,37.73
2023-02-17T00:59:45.780Z,35.17
2023-02-17T01:02:12.390Z,37.03
2023-02-17T01:04:39.073Z,34.83
2023-02-17T01:07:05.680Z,36.67
2023-02-17T01:09:32.292Z,39.10
2023-02-17T01:11:58.914Z,39.17
2023-02-17T01:14:25.589Z,39.47
2023-02-17T01:16:52.252Z,39.60
2023-02-17T01:19:19.624Z,29.13
2023-02-17T01:21:46.200Z,43.97
2023-02-17T01:24:13.152Z,38.93
2023-02-17T01:26:40.323Z,30.13
2023-02-17T01:29:09.557Z,34.40
2023-02-17T01:31:36.418Z,31.83
2023-02-17T01:34:04.427Z,35.17
2023-02-17T01:36:32.103Z,36.60
2023-02-17T01:38:58.806Z,33.50
2023-02-17T01:41:27.307Z,37.37
2023-02-17T01:44:10.850Z,36.70
2023-02-17T01:46:38.835Z,35.13
2023-02-17T01:49:19.857Z,34.70
2023-02-17T01:51:49.574Z,35.87
2023-02-17T01:54:20.954Z,31.53
2023-02-17T01:56:48.605Z,28.30
2023-02-17T01:59:21.038Z,25.67
2023-02-17T02:01:50.165Z,26.97
2023-02-17T02:04:19.446Z,26.27
2023-02-17T02:06:46.392Z,24.97
2023-02-17T02:09:18.350Z,25.57
2023-02-17T02:11:45.032Z,21.97
2023-02-17T02:14:11.794Z,21.13
2023-02-17T02:16:51.029Z,22.97
2023-02-17T02:19:42.228Z,21.73
2023-02-17T02:22:42.714Z,24.33
2023-02-17T02:25:15.318Z,24.13
2023-02-17T02:27:41.843Z,22.07
2023-02-17T02:30:14.479Z,26.00
2023-02-17T02:32:50.096Z,21.50
2023-02-17T02:35:19.270Z,21.03
2023-02-17T02:37:58.007Z,18.23
2023-02-17T02:40:27.777Z,19.10
2023-02-17T02:42:54.637Z,18.10
2023-02-17T02:45:21.990Z,20.37
2023-02-17T02:47:55.359Z,19.37
2023-02-17T02:50:26.184Z,20.87
2023-02-17T02:53:07.406Z,19.57
2023-02-17T02:55:40.037Z,25.40
2023-02-17T02:58:16.327Z,25.23
2023-02-17T03:00:57.372Z,22.00
2023-02-17T03:03:42.587Z,22.63
2023-02-17T03:06:21.377Z,21.77
2023-02-17T03:08:55.029Z,22.83
2023-02-17T03:11:32.481Z,21.40
2023-02-17T03:14:02.528Z,19.80
2023-02-17T03:16:29.496Z,21.40
2023-02-17T03:18:56.084Z,20.97
2023-02-17T03:21:23.786Z,24.93
2023-02-17T03:23:50.664Z,30.23
2023-02-17T03:26:17.300Z,32.80
2023-02-17T03:28:43.898Z,25.27
2023-02-17T03:31:10.588Z,23.83
2023-02-17T03:33:37.243Z,22.53
2023-02-17T03:36:04.320Z,22.70
2023-02-17T03:38:31.088Z,20.57
2023-02-17T03:40:57.718Z,25.27
2023-02-17T03:43:24.338Z,19.00
2023-02-17T03:45:51.177Z,19.00
2023-02-17T03:48:17.787Z,19.87
2023-02-17T03:50:44.380Z,20.37
2023-02-17T03:53:11.819Z,18.27
2023-02-17T03:55:38.424Z,19.27
2023-02-17T03:58:05.076Z,18.50
2023-02-17T04:00:31.716Z,21.33
2023-02-17T04:02:58.384Z,19.27
2023-02-17T04:05:25.004Z,22.17
2023-02-17T04:07:52.480Z,19.27
2023-02-17T04:10:19.201Z,19.60
2023-02-17T04:12:45.755Z,23.17
2023-02-17T04:15:12.509Z,18.97
2023-02-17T04:17:39.181Z,18.57
2023-02-17T04:20:06.762Z,19.33
2023-02-17T04:22:33.325Z,17.37
2023-02-17T04:24:59.941Z,20.03
2023-02-17T04:27:26.536Z,27.00
2023-02-17T04:29:53.221Z,33.80
2023-02-17T04:32:19.840Z,27.47
2023-02-17T04:34:46.415Z,35.30
2023-02-17T04:37:13.060Z,31.77
2023-02-17T04:39:39.646Z,28.90
2023-02-17T04:42:06.186Z,31.53
2023-02-17T04:44:32.763Z,31.33
2023-02-17T04:46:59.348Z,30.07
2023-02-17T04:49:25.907Z,34.07
2023-02-17T04:51:52.546Z,30.27
2023-02-17T04:54:19.201Z,34.40
2023-02-17T04:56:45.796Z,65.00
2023-02-17T04:59:12.395Z,83.20
2023-02-17T05:01:39.034Z,45.27
2023-02-17T05:04:05.865Z,62.30
2023-02-17T05:06:32.556Z,79.53
2023-02-17T05:08:59.260Z,178.73
2023-02-17T05:11:25.980Z,127.23
2023-02-17T05:13:52.597Z,52.50
2023-02-17T05:16:19.311Z,126.13
2023-02-17T05:18:45.880Z,259.20
2023-02-17T05:21:12.493Z,196.40
2023-02-17T05:23:41.395Z,147.17
2023-02-17T05:26:11.220Z,35.70
2023-02-17T05:28:37.925Z,80.10
2023-02-17T05:31:05.055Z,95.93
2023-02-17T05:33:31.644Z,96.20
2023-02-17T05:36:03.335Z,47.47
2023-02-17T05:38:30.297Z,62.17
2023-02-17T05:40:56.970Z,54.10
2023-02-17T05:43:23.678Z,132.03
2023-02-17T05:45:50.367Z,80.67
2023-02-17T05:48:17.354Z,69.47
2023-02-17T05:50:44.040Z,49.67
2023-02-17T05:53:10.638Z,41.67
2023-02-17T05:55:37.290Z,39.30
2023-02-17T05:58:03.910Z,57.57
2023-02-17T06:00:30.607Z,38.30
2023-02-17T06:02:57.244Z,38.47
2023-02-17T06:05:23.972Z,42.50
2023-02-17T06:07:50.583Z,40.13
2023-02-17T06:10:17.443Z,47.30
2023-02-17T06:12:44.089Z,49.43
2023-02-17T06:15:10.811Z,34.43
2023-02-17T06:17:37.463Z,44.93
2023-02-17T06:20:04.757Z,31.33
2023-02-17T06:22:31.367Z,52.10
2023-02-17T06:24:57.941Z,48.10
2023-02-17T06:27:24.952Z,41.57
2023-02-17T06:29:51.675Z,40.20
2023-02-17T06:32:18.359Z,50.37
2023-02-17T06:34:44.985Z,57.13
2023-02-17T06:37:11.635Z,55.70
2023-02-17T06:39:38.300Z,58.43
2023-02-17T06:42:05.049Z,61.90
2023-02-17T06:44:31.725Z,60.70
2023-02-17T06:46:59.408Z,63.60
2023-02-17T06:49:26.109Z,65.97
2023-02-17T06:51:52.704Z,75.30
2023-02-17T06:54:19.363Z,73.07
2023-02-17T06:56:45.998Z,63.53
2023-02-17T06:59:12.628Z,47.64
2023-02-17T07:01:39.333Z,44.97
2023-02-17T07:04:06.123Z,35.17
2023-02-17T07:06:32.926Z,24.60
2023-02-17T07:08:59.528Z,24.23
2023-02-17T07:11:27.323Z,27.87
2023-02-17T07:13:53.947Z,25.67
2023-02-17T07:16:20.553Z,30.10
2023-02-17T07:18:47.483Z,21.30
2023-02-17T07:21:14.163Z,23.40
2023-02-17T07:23:40.813Z,20.47
2023-02-17T07:26:10.086Z,22.40
2023-02-17T07:28:37.966Z,29.00
2023-02-17T07:31:08.534Z,40.87
2023-02-17T07:33:35.821Z,33.70
2023-02-17T07:36:10.327Z,25.17
2023-02-17T07:38:37.533Z,18.87
2023-02-17T07:41:11.085Z,21.17
2023-02-17T07:43:37.729Z,28.47
2023-02-17T07:46:05.646Z,30.33
2023-02-17T07:48:32.613Z,21.73
2023-02-17T07:51:08.998Z,16.70
2023-02-17T07:53:36.166Z,20.67
2023-02-17T07:56:04.698Z,17.77
2023-02-17T07:58:32.925Z,19.20
2023-02-17T08:01:07.527Z,16.13
2023-02-17T08:03:34.395Z,16.90
2023-02-17T08:06:01.396Z,14.15
2023-02-17T08:08:46.495Z,14.90
2023-02-17T08:11:33.695Z,22.83
2023-02-17T08:14:00.426Z,20.00
2023-02-17T08:16:27.109Z,20.80
2023-02-17T08:18:55.589Z,21.37
2023-02-17T08:21:23.445Z,21.03
2023-02-17T08:23:50.108Z,17.77
2023-02-17T08:26:17.801Z,23.07
2023-02-17T08:28:44.998Z,18.33
2023-02-17T08:31:25.367Z,18.98
2023-02-17T08:33:52.655Z,19.03
2023-02-17T08:36:22.288Z,17.20
2023-02-17T08:38:51.282Z,21.10
2023-02-17T08:41:24.600Z,13.83
2023-02-17T08:43:51.523Z,15.67
2023-02-17T08:46:19.332Z,15.43
2023-02-17T08:48:46.157Z,19.10
2023-02-17T08:51:14.419Z,11.17
2023-02-17T08:53:41.053Z,18.17
2023-02-17T08:56:08.430Z,16.03
2023-02-17T08:58:36.210Z,12.57
2023-02-17T09:01:03.515Z,12.47
2023-02-17T09:03:30.596Z,13.30
2023-02-17T09:05:57.952Z,12.57
2023-02-17T09:08:24.605Z,12.97
2023-02-17T09:10:51.599Z,7.77
2023-02-17T09:13:19.076Z,9.80
2023-02-17T09:15:45.965Z,8.20
2023-02-17T09:18:12.763Z,10.37
2023-02-17T09:20:39.732Z,7.70
2023-02-17T09:23:07.017Z,8.63
2023-02-17T09:25:33.751Z,8.40
2023-02-17T09:28:00.451Z,7.53
2023-02-17T09:30:27.140Z,7.37
2023-02-17T09:32:53.830Z,8.10
2023-02-17T09:35:20.507Z,9.00
2023-02-17T09:37:47.194Z,10.23
2023-02-17T09:40:44.282Z,14.53
2023-02-17T09:43:15.032Z,8.67
2023-02-17T09:45:43.062Z,9.17
2023-02-17T09:48:12.232Z,10.03
2023-02-17T09:50:44.082Z,7.93
2023-02-17T09:53:51.939Z,10.40
2023-02-17T09:56:22.892Z,9.57
2023-02-17T09:59:23.155Z,10.17
2023-02-17T10:01:50.568Z,7.90
2023-02-17T10:04:19.454Z,8.33
2023-02-17T10:06:47.624Z,7.37
2023-02-17T10:09:33.625Z,7.67
2023-02-17T10:12:09.929Z,8.47
2023-02-17T10:14:42.220Z,8.43
2023-02-17T10:17:20.925Z,6.07
2023-02-17T10:20:24.137Z,7.80
2023-02-17T10:23:07.215Z,7.53
2023-02-17T10:26:09.225Z,6.37
2023-02-17T10:28:53.170Z,9.30
2023-02-17T10:31:41.718Z,8.90
2023-02-17T10:34:33.191Z,9.17
2023-02-17T10:37:24.602Z,7.10
2023-02-17T10:39:53.441Z,8.30
2023-02-17T10:42:28.183Z,6.73
2023-02-17T10:45:00.844Z,7.97
2023-02-17T10:47:27.676Z,6.90
2023-02-17T10:49:56.717Z,5.40
2023-02-17T10:52:28.052Z,7.20
2023-02-17T10:54:59.955Z,6.13
2023-02-17T10:57:32.772Z,5.10
2023-02-17T10:59:59.455Z,9.07
2023-02-17T11:02:46.378Z,5.67
2023-02-17T11:05:31.648Z,6.73
2023-02-17T11:08:01.681Z,8.17
2023-02-17T11:10:40.647Z,6.69
2023-02-17T11:13:40.868Z,7.07
2023-02-17T11:16:07.791Z,6.67
2023-02-17T11:18:39.333Z,6.23
2023-02-17T11:21:09.499Z,8.67
2023-02-17T11:23:40.386Z,10.20
2023-02-17T11:26:16.756Z,6.33
2023-02-17T11:28:43.348Z,5.60
2023-02-17T11:31:27.680Z,9.17
2023-02-17T11:33:56.846Z,10.80
2023-02-17T11:36:28.884Z,8.50
2023-02-17T11:38:55.942Z,8.63
2023-02-17T11:41:23.149Z,9.50
2023-02-17T11:43:56.143Z,9.47
2023-02-17T11:46:37.048Z,10.33
2023-02-17T11:49:06.863Z,7.17
2023-02-17T11:51:40.526Z,8.33
2023-02-17T11:54:21.655Z,7.93
2023-02-17T11:56:58.376Z,8.57
2023-02-17T12:00:05.749Z,11.57
2023-02-17T12:03:03.872Z,8.70
2023-02-17T12:05:52.507Z,7.97
2023-02-17T12:08:27.679Z,10.20
2023-02-17T12:11:33.532Z,11.63
2023-02-17T12:14:31.185Z,8.33
2023-02-17T12:17:19.618Z,11.73
2023-02-17T12:19:52.235Z,9.93
2023-02-17T12:22:30.086Z,11.10
2023-02-17T12:25:24.648Z,15.23
2023-02-17T12:28:19.169Z,10.43
2023-02-17T12:31:03.150Z,9.23
2023-02-17T12:33:43.475Z,9.27
2023-02-17T12:36:15.140Z,12.47
2023-02-17T12:38:46.487Z,10.00
2023-02-17T12:41:34.652Z,9.80
2023-02-17T12:44:14.772Z,12.23
2023-02-17T12:46:44.937Z,9.50
2023-02-17T12:49:22.184Z,8.93
2023-02-17T12:51:59.429Z,9.80
2023-02-17T12:54:26.069Z,10.43
2023-02-17T12:57:14.628Z,10.23
2023-02-17T12:59:50.468Z,8.00
2023-02-17T13:02:19.567Z,10.77
2023-02-17T13:04:50.067Z,9.77
2023-02-17T13:07:21.308Z,8.30
2023-02-17T13:09:49.946Z,11.30
2023-02-17T13:12:22.535Z,8.80
2023-02-17T13:14:57.135Z,8.97
2023-02-17T13:17:29.884Z,9.57
2023-02-17T13:20:05.841Z,7.50
2023-02-17T13:22:32.460Z,8.07
2023-02-17T13:24:59.215Z,8.57
2023-02-17T13:27:28.764Z,9.77
2023-02-17T13:30:29.122Z,7.53
2023-02-17T13:33:07.844Z,8.47
2023-02-17T13:35:36.256Z,8.40
2023-02-17T13:38:03.748Z,9.80
2023-02-17T13:40:30.378Z,7.80
2023-02-17T13:42:58.059Z,8.67
2023-02-17T13:45:34.494Z,10.77
2023-02-17T13:48:21.156Z,9.53
2023-02-17T13:50:51.179Z,5.40
2023-02-17T13:53:27.229Z,8.77
2023-02-17T13:55:56.769Z,10.70
2023-02-17T13:58:30.137Z,8.13
2023-02-17T14:00:58.960Z,10.33
2023-02-17T14:03:33.281Z,10.60
2023-02-17T14:06:01.776Z,14.17
2023-02-17T14:08:34.498Z,18.00
2023-02-17T14:11:21.206Z,10.20
2023-02-17T14:13:49.261Z,12.47
2023-02-17T14:16:38.535Z,15.73
2023-02-17T14:19:11.138Z,8.50
2023-02-17T14:21:43.591Z,7.50
2023-02-17T14:24:36.953Z,10.30
2023-02-17T14:27:08.227Z,9.93
2023-02-17T14:29:42.222Z,15.87
2023-02-17T14:32:26.447Z,10.80
2023-02-17T14:34:53.186Z,15.20
2023-02-17T14:37:26.097Z,15.83
2023-02-17T14:39:52.700Z,13.23
2023-02-17T14:42:19.380Z,9.90
2023-02-17T14:44:45.978Z,12.33
2023-02-17T14:47:12.536Z,15.30
2023-02-17T14:49:39.184Z,14.80
2023-02-17T14:52:19.871Z,13.87
2023-02-17T14:54:46.631Z,12.00
2023-02-17T14:57:14.833Z,12.83
2023-02-17T14:59:41.925Z,13.80
2023-02-17T15:02:20.701Z,10.73
2023-02-17T15:04:47.402Z,11.53
2023-02-17T15:07:18.576Z,9.80
2023-02-17T15:09:46.487Z,11.00
2023-02-17T15:12:18.209Z,10.17
2023-02-17T15:14:46.919Z,9.17
2023-02-17T15:17:14.562Z,15.90
2023-02-17T15:19:43.992Z,13.30
2023-02-17T15:22:14.436Z,13.03
2023-02-17T15:24:41.360Z,9.87
2023-02-17T15:27:13.366Z,8.77
2023-02-17T15:29:40.042Z,11.33
2023-02-17T15:32:13.007Z,7.50
2023-02-17T15:34:39.690Z,13.03
2023-02-17T15:37:06.317Z,8.43
2023-02-17T15:39:32.878Z,10.60
2023-02-17T15:42:01.300Z,15.83
2023-02-17T15:44:34.407Z,16.73
2023-02-17T15:47:01.057Z,10.70
2023-02-17T15:49:36.271Z,14.86
2023-02-17T15:52:02.853Z,17.63
2023-02-17T15:54:29.491Z,13.27
2023-02-17T15:56:56.094Z,20.47
2023-02-17T15:59:24.761Z,27.13
2023-02-17T16:01:51.566Z,47.27
2023-02-17T16:04:18.245Z,37.50
2023-02-17T16:06:44.989Z,41.03
2023-02-17T16:09:11.763Z,36.93
2023-02-17T16:11:47.284Z,38.53
2023-02-17T16:14:23.268Z,24.80
2023-02-17T16:16:49.953Z,18.27
2023-02-17T16:19:16.587Z,52.57
2023-02-17T16:21:43.194Z,20.53
2023-02-17T16:24:09.817Z,28.23
2023-02-17T16:26:37.018Z,98.77
2023-02-17T16:29:12.612Z,111.87
2023-02-17T16:31:39.307Z,65.30
2023-02-17T16:34:05.971Z,73.00
2023-02-17T16:36:34.499Z,108.67
2023-02-17T16:39:03.367Z,74.33
2023-02-17T16:41:29.987Z,98.37
2023-02-17T16:43:56.796Z,53.13
2023-02-17T16:46:29.726Z,175.20
2023-02-17T16:48:57.438Z,191.43
2023-02-17T16:51:24.373Z,28.27
2023-02-17T16:53:51.122Z,38.00
2023-02-17T16:56:48.013Z,56.73
2023-02-17T16:59:16.810Z,86.70
2023-02-17T17:01:43.865Z,53.93
2023-02-17T17:04:10.585Z,27.87
2023-02-17T17:06:39.372Z,20.53
2023-02-17T17:09:07.263Z,40.37
2023-02-17T17:11:33.906Z,11.30
2023-02-17T17:14:00.486Z,10.87
2023-02-17T17:16:31.757Z,17.60
2023-02-17T17:18:59.309Z,10.80
2023-02-17T17:21:25.896Z,34.27
2023-02-17T17:23:52.905Z,20.40
2023-02-17T17:26:19.751Z,14.70
2023-02-17T17:28:49.112Z,17.00
2023-02-17T17:31:16.831Z,15.53
2023-02-17T17:33:43.633Z,25.73
2023-02-17T17:36:15.370Z,39.60
2023-02-17T17:38:42.040Z,27.87
2023-02-17T17:41:13.038Z,21.90
2023-02-17T17:43:40.429Z,21.70
2023-02-17T17:46:13.504Z,17.80
2023-02-17T17:48:40.427Z,13.07
2023-02-17T17:51:07.408Z,17.10
2023-02-17T17:53:34.129Z,15.73
2023-02-17T17:56:00.765Z,17.90
2023-02-17T17:58:27.366Z,16.40
2023-02-17T18:00:54.686Z,19.97
2023-02-17T18:03:21.300Z,12.43
2023-02-17T18:05:47.949Z,15.03
2023-02-17T18:08:15.009Z,16.00
2023-02-17T18:10:42.451Z,13.20
2023-02-17T18:13:10.978Z,16.50
2023-02-17T18:15:37.883Z,16.43
2023-02-17T18:18:04.549Z,15.83
2023-02-17T18:20:33.277Z,18.57
2023-02-17T18:22:59.911Z,17.43
2023-02-17T18:25:26.504Z,16.23
2023-02-17T18:27:53.098Z,16.30
2023-02-17T18:30:21.444Z,12.90
2023-02-17T18:32:48.257Z,16.40
2023-02-17T18:35:15.231Z,11.73
2023-02-17T18:37:42.245Z,11.80
2023-02-17T18:40:12.657Z,10.77
2023-02-17T18:42:40.594Z,11.67
2023-02-17T18:45:08.010Z,12.13
2023-02-17T18:47:34.667Z,12.63
2023-02-17T18:50:01.329Z,13.07
2023-02-17T18:52:28.015Z,13.23
2023-02-17T18:54:54.819Z,13.07
2023-02-17T18:57:21.482Z,12.77
2023-02-17T18:59:49.346Z,14.53
2023-02-17T19:02:16.135Z,15.23
2023-02-17T19:04:42.842Z,14.57
2023-02-17T19:07:09.527Z,11.93
2023-02-17T19:09:39.374Z,12.53
2023-02-17T19:12:06.376Z,17.37
2023-02-17T19:14:33.490Z,12.37
2023-02-17T19:17:00.124Z,12.10
2023-02-17T19:19:30.328Z,12.43
2023-02-17T19:21:57.448Z,14.27
2023-02-17T19:24:23.987Z,15.90
2023-02-17T19:26:50.591Z,11.07
2023-02-17T19:29:17.210Z,12.77
2023-02-17T19:31:43.919Z,12.87
2023-02-17T19:34:11.048Z,13.57
2023-02-17T19:36:37.606Z,13.13
2023-02-17T19:39:04.556Z,14.00
2023-02-17T19:41:31.140Z,13.13
2023-02-17T19:43:57.743Z,13.30
2023-02-17T19:46:25.784Z,14.63
2023-02-17T19:48:59.252Z,12.96
2023-02-17T19:51:25.963Z,12.37
2023-02-17T19:53:52.541Z,12.90
2023-02-17T19:56:24.278Z,11.17
2023-02-17T19:58:51.476Z,11.90
2023-02-17T20:01:20.794Z,13.27
2023-02-17T20:03:47.705Z,11.57
2023-02-17T20:06:17.356Z,14.67
2023-02-17T20:08:47.791Z,11.70
2023-02-17T20:11:15.085Z,14.40
2023-02-17T20:13:46.086Z,10.97
2023-02-17T20:16:14.573Z,12.80
2023-02-17T20:18:44.744Z,12.13
2023-02-17T20:21:13.531Z,10.83
2023-02-17T20:23:40.113Z,13.73
2023-02-17T20:26:09.368Z,15.10
2023-02-17T20:28:36.354Z,16.13
2023-02-17T20:31:05.783Z,16.33
2023-02-17T20:33:32.937Z,15.60
2023-02-17T20:35:59.524Z,13.03
2023-02-17T20:38:26.136Z,14.30
2023-02-17T20:40:52.748Z,61.47
2023-02-17T20:43:20.687Z,29.63
2023-02-17T20:45:48.922Z,18.73
2023-02-17T20:48:15.600Z,11.33
2023-02-17T20:50:42.641Z,16.43
2023-02-17T20:53:09.249Z,18.70
2023-02-17T20:55:35.977Z,24.77
2023-02-17T20:58:02.756Z,15.20
2023-02-17T21:00:30.178Z,15.77
2023-02-17T21:02:56.850Z,13.47
2023-02-17T21:05:24.493Z,13.50
2023-02-17T21:07:51.165Z,10.57
2023-02-17T21:10:21.633Z,12.17
2023-02-17T21:12:48.798Z,19.43
2023-02-17T21:15:16.219Z,16.30
2023-02-17T21:17:42.864Z,16.93
2023-02-17T21:20:12.138Z,15.17
2023-02-17T21:22:38.917Z,15.70
2023-02-17T21:25:05.790Z,19.90
2023-02-17T21:27:32.611Z,13.90
2023-02-17T21:29:59.446Z,12.17
2023-02-17T21:32:26.657Z,20.03
2023-02-17T21:34:53.351Z,12.43
2023-02-17T21:37:19.996Z,16.90
2023-02-17T21:39:46.652Z,17.73
2023-02-17T21:42:13.292Z,15.70
2023-02-17T21:44:51.826Z,17.63
2023-02-17T21:47:19.910Z,22.30
2023-02-17T21:49:47.007Z,12.83
2023-02-17T21:52:14.683Z,17.23
2023-02-17T21:54:41.356Z,13.07
2023-02-17T21:57:08.039Z,16.00
2023-02-17T21:59:34.667Z,18.30
2023-02-17T22:02:01.248Z,26.47
2023-02-17T22:04:28.248Z,12.60
2023-02-17T22:06:54.877Z,14.07
2023-02-17T22:09:21.574Z,13.20
2023-02-17T22:11:49.521Z,10.10
2023-02-17T22:14:20.391Z,15.83
2023-02-17T22:16:47.818Z,15.40
2023-02-17T22:19:17.314Z,12.27
2023-02-17T22:21:44.408Z,18.40
2023-02-17T22:24:11.469Z,10.63
2023-02-17T22:26:38.463Z,9.53
2023-02-17T22:29:05.215Z,11.10
2023-02-17T22:31:32.682Z,11.83
2023-02-17T22:34:02.307Z,12.60
2023-02-17T22:36:32.016Z,11.80
2023-02-17T22:38:59.057Z,10.47
2023-02-17T22:41:26.078Z,8.00
2023-02-17T22:43:53.418Z,9.93
2023-02-17T22:46:22.467Z,8.20
2023-02-17T22:48:50.825Z,8.50
2023-02-17T22:51:20.745Z,9.40
2023-02-17T22:53:47.334Z,8.80
2023-02-17T22:56:13.998Z,10.60
2023-02-17T22:58:40.717Z,8.43
2023-02-17T23:01:13.015Z,10.53
2023-02-17T23:03:39.770Z,8.90
2023-02-17T23:06:15.224Z,11.37
2023-02-17T23:08:43.287Z,9.25
2023-02-17T23:11:12.034Z,10.33
2023-02-17T23:13:45.861Z,11.03
2023-02-17T23:16:21.578Z,11.30
2023-02-17T23:18:48.380Z,8.40
2023-02-17T23:21:14.944Z,9.50
2023-02-17T23:23:41.589Z,8.40
2023-02-17T23:26:08.485Z,9.33
2023-02-17T23:28:35.259Z,11.17
2023-02-17T23:31:01.947Z,9.00
2023-02-17T23:33:28.648Z,11.67
2023-02-17T23:35:55.226Z,7.63
2023-02-17T23:38:22.003Z,10.87
2023-02-17T23:40:52.975Z,7.87
2023-02-17T23:43:20.010Z,7.90
2023-02-17T23:45:46.669Z,8.47
2023-02-17T23:48:13.356Z,7.00
2023-02-17T23:50:40.095Z,6.67
2023-02-17T23:53:07.348Z,12.10
2023-02-17T23:55:34.319Z,10.00
2023-02-17T23:58:01.348Z,7.43
